createdAt,value
2024-03-22T00:00:10.762Z,18.94
2024-03-22T00:01:10.763Z,18.85
2024-03-22T00:02:10.769Z,18.85
2024-03-22T00:03:10.786Z,18.74
2024-03-22T00:04:10.769Z,18.95
2024-03-22T00:05:10.772Z,19.13
2024-03-22T00:06:10.789Z,18.95
2024-03-22T00:07:10.782Z,18.94
2024-03-22T00:08:10.781Z,19.04
2024-03-22T00:09:10.778Z,18.84
2024-03-22T00:10:10.783Z,19.04
2024-03-22T00:11:10.780Z,19.04
2024-03-22T00:12:10.781Z,18.95
2024-03-22T00:13:10.783Z,18.94
2024-03-22T00:14:10.787Z,18.85
2024-03-22T00:15:10.785Z,18.94
2024-03-22T00:16:10.788Z,18.94
2024-03-22T00:17:11.039Z,19.04
2024-03-22T00:18:10.800Z,18.94
2024-03-22T00:19:10.812Z,19.04
2024-03-22T00:20:10.797Z,19.14
2024-03-22T00:21:10.801Z,19.04
2024-03-22T00:22:10.799Z,18.75
2024-03-22T00:23:10.828Z,19.04
2024-03-22T00:24:10.805Z,18.94
2024-03-22T00:25:10.802Z,19.04
2024-03-22T00:26:10.806Z,19.04
2024-03-22T00:27:10.811Z,18.84
2024-03-22T00:28:10.810Z,18.84
2024-03-22T00:29:10.808Z,18.94
2024-03-22T00:30:10.816Z,18.94
2024-03-22T00:31:10.813Z,18.94
2024-03-22T00:32:10.823Z,18.85
2024-03-22T00:33:10.814Z,18.94
2024-03-22T00:34:10.817Z,18.85
2024-03-22T00:35:10.842Z,18.84
2024-03-22T00:36:10.820Z,18.84
2024-03-22T00:37:10.822Z,18.95
2024-03-22T00:38:10.838Z,19.04
2024-03-22T00:39:10.824Z,18.84
2024-03-22T00:40:10.827Z,18.94
2024-03-22T00:41:10.827Z,18.94
2024-03-22T00:42:10.830Z,18.95
2024-03-22T00:43:10.831Z,18.94
2024-03-22T00:44:10.834Z,18.84
2024-03-22T00:45:10.835Z,18.74
2024-03-22T00:46:10.846Z,18.84
2024-03-22T00:47:10.835Z,18.94
2024-03-22T00:48:10.847Z,18.84
2024-03-22T00:49:10.840Z,18.84
2024-03-22T00:50:10.843Z,18.85
2024-03-22T00:51:10.880Z,18.95
2024-03-22T00:52:10.845Z,18.94
2024-03-22T00:53:10.848Z,18.94
2024-03-22T00:54:10.849Z,18.94
2024-03-22T00:55:10.849Z,18.75
2024-03-22T00:56:10.855Z,18.74
2024-03-22T00:57:10.852Z,18.95
2024-03-22T00:58:10.859Z,18.94
2024-03-22T00:59:10.857Z,19.04
2024-03-22T01:00:10.862Z,18.94
2024-03-22T01:01:10.872Z,19.04
2024-03-22T01:02:10.862Z,18.74
2024-03-22T01:03:10.865Z,18.94
2024-03-22T01:04:10.864Z,19.04
2024-03-22T01:05:10.863Z,18.94
2024-03-22T01:06:10.867Z,18.94
2024-03-22T01:07:10.909Z,18.84
2024-03-22T01:08:10.869Z,18.94
2024-03-22T01:09:10.871Z,19.13
2024-03-22T01:10:10.891Z,18.94
2024-03-22T01:11:10.875Z,18.94
2024-03-22T01:12:10.881Z,19.04
2024-03-22T01:13:10.878Z,19.04
2024-03-22T01:14:10.879Z,18.94
2024-03-22T01:15:10.886Z,18.95
2024-03-22T01:16:10.891Z,19.04
2024-03-22T01:17:10.882Z,18.84
2024-03-22T01:18:10.889Z,18.94
2024-03-22T01:19:10.888Z,18.84
2024-03-22T01:20:10.913Z,18.84
2024-03-22T01:21:10.890Z,18.85
2024-03-22T01:22:10.892Z,19.04
2024-03-22T01:23:10.901Z,19.04
2024-03-22T01:24:10.893Z,18.85
2024-03-22T01:25:10.894Z,19.04
2024-03-22T01:26:10.900Z,19.04
2024-03-22T01:27:10.896Z,18.84
2024-03-22T01:28:10.906Z,18.95
2024-03-22T01:29:10.907Z,19.04
2024-03-22T01:30:10.915Z,18.95
2024-03-22T01:31:10.904Z,18.84
2024-03-22T01:32:10.910Z,18.95
2024-03-22T01:33:10.912Z,18.84
2024-03-22T01:34:10.909Z,19.04
2024-03-22T01:35:10.908Z,19.04
2024-03-22T01:36:10.913Z,19.04
2024-03-22T01:37:10.915Z,19.04
2024-03-22T01:38:10.916Z,19.04
2024-03-22T01:39:10.926Z,18.95
2024-03-22T01:40:10.932Z,18.95
2024-03-22T01:41:10.920Z,19.04
2024-03-22T01:42:10.920Z,19.04
2024-03-22T01:43:10.923Z,18.95
2024-03-22T01:44:10.924Z,18.95
2024-03-22T01:45:10.926Z,19.14
2024-03-22T01:46:10.930Z,18.95
2024-03-22T01:47:10.934Z,19.04
2024-03-22T01:48:10.931Z,19.14
2024-03-22T01:49:10.932Z,18.85
2024-03-22T01:50:10.934Z,18.85
2024-03-22T01:51:10.938Z,18.85
2024-03-22T01:52:10.935Z,18.85
2024-03-22T01:53:10.940Z,18.84
2024-03-22T01:54:10.942Z,19.04
2024-03-22T01:55:10.954Z,18.94
2024-03-22T01:56:10.941Z,18.84
2024-03-22T01:57:10.948Z,18.94
2024-03-22T01:58:10.946Z,19.04
2024-03-22T01:59:10.951Z,18.84
2024-03-22T02:00:10.953Z,19.13
2024-03-22T02:01:10.955Z,19.24
2024-03-22T02:02:10.952Z,18.94
2024-03-22T02:03:10.957Z,19.04
2024-03-22T02:04:10.969Z,18.95
2024-03-22T02:05:10.956Z,18.94
2024-03-22T02:06:10.962Z,19.04
2024-03-22T02:07:10.969Z,19.13
2024-03-22T02:08:10.963Z,18.84
2024-03-22T02:09:10.964Z,19.32
2024-03-22T02:10:10.966Z,19.23
2024-03-22T02:11:10.981Z,19.13
2024-03-22T02:12:10.969Z,19.23
2024-03-22T02:13:10.972Z,19.23
2024-03-22T02:14:10.984Z,19.14
2024-03-22T02:15:10.989Z,18.94
2024-03-22T02:16:10.984Z,19.23
2024-03-22T02:17:13.300Z,19.14
2024-03-22T02:18:10.982Z,19.24
2024-03-22T02:19:10.983Z,19.14
2024-03-22T02:20:10.983Z,19.24
2024-03-22T02:21:10.987Z,18.84
2024-03-22T02:22:11.021Z,19.24
2024-03-22T02:23:10.992Z,18.94
2024-03-22T02:24:10.991Z,19.24
2024-03-22T02:25:10.993Z,19.34
2024-03-22T02:26:10.995Z,19.13
2024-03-22T02:27:11.020Z,19.34
2024-03-22T02:28:11.000Z,19.24
2024-03-22T02:29:11.014Z,19.24
2024-03-22T02:30:11.005Z,19.14
2024-03-22T02:31:11.007Z,19.23
2024-03-22T02:32:11.004Z,19.32
2024-03-22T02:33:11.011Z,19.34
2024-03-22T02:34:11.011Z,19.23
2024-03-22T02:35:11.021Z,19.24
2024-03-22T02:36:11.018Z,19.04
2024-03-22T02:37:11.017Z,19.14
2024-03-22T02:38:11.024Z,19.13
2024-03-22T02:39:11.020Z,19.13
2024-03-22T02:40:11.054Z,19.13
2024-03-22T02:41:11.021Z,19.13
2024-03-22T02:42:11.051Z,19.23
2024-03-22T02:43:11.038Z,19.14
2024-03-22T02:44:11.027Z,19.43
2024-03-22T02:45:11.028Z,19.14
2024-03-22T02:46:11.027Z,19.13
2024-03-22T02:47:11.033Z,19.14
2024-03-22T02:48:11.033Z,19.14
2024-03-22T02:49:11.035Z,19.13
2024-03-22T02:50:11.038Z,19.14
2024-03-22T02:51:11.041Z,19.04
2024-03-22T02:52:11.043Z,19.13
2024-03-22T02:53:11.057Z,19.13
2024-03-22T02:54:11.042Z,19.24
2024-03-22T02:55:11.049Z,19.04
2024-03-22T02:56:11.043Z,19.14
2024-03-22T02:57:11.048Z,19.24
2024-03-22T02:58:11.049Z,19.13
2024-03-22T02:59:11.061Z,19.24
2024-03-22T03:00:11.070Z,19.23
2024-03-22T03:01:11.054Z,19.32
2024-03-22T03:02:11.063Z,19.14
2024-03-22T03:03:11.057Z,19.13
2024-03-22T03:04:11.058Z,19.24
2024-03-22T03:05:11.066Z,19.24
2024-03-22T03:06:11.062Z,19.14
2024-03-22T03:07:11.065Z,19.14
2024-03-22T03:08:11.064Z,19.14
2024-03-22T03:09:11.066Z,19.34
2024-03-22T03:10:11.068Z,19.23
2024-03-22T03:11:11.069Z,19.14
2024-03-22T03:12:13.119Z,19.14
2024-03-22T03:13:11.072Z,19.24
2024-03-22T03:14:11.074Z,19.34
2024-03-22T03:15:11.084Z,19.14
2024-03-22T03:16:11.086Z,19.34
2024-03-22T03:17:11.088Z,19.14
2024-03-22T03:18:11.075Z,19.24
2024-03-22T03:19:11.081Z,19.14
2024-03-22T03:20:11.094Z,19.14
2024-03-22T03:21:11.086Z,19.24
2024-03-22T03:22:11.085Z,19.14
2024-03-22T03:23:11.092Z,19.14
2024-03-22T03:24:11.086Z,19.14
2024-03-22T03:25:11.090Z,19.32
2024-03-22T03:26:11.091Z,19.24
2024-03-22T03:27:11.090Z,19.14
2024-03-22T03:28:11.094Z,19.24
2024-03-22T03:29:11.095Z,19.23
2024-03-22T03:30:11.104Z,19.13
2024-03-22T03:31:11.117Z,19.14
2024-03-22T03:32:11.100Z,19.14
2024-03-22T03:33:11.097Z,19.04
2024-03-22T03:34:11.109Z,19.13
2024-03-22T03:35:11.105Z,19.04
2024-03-22T03:36:11.110Z,19.13
2024-03-22T03:37:11.123Z,19.23
2024-03-22T03:38:11.109Z,19.14
2024-03-22T03:39:11.112Z,19.14
2024-03-22T03:40:11.113Z,19.13
2024-03-22T03:41:11.111Z,18.94
2024-03-22T03:42:11.121Z,19.04
2024-03-22T03:43:11.114Z,19.04
2024-03-22T03:44:11.117Z,19.13
2024-03-22T03:45:11.114Z,19.13
2024-03-22T03:46:11.118Z,19.13
2024-03-22T03:47:11.136Z,19.13
2024-03-22T03:48:11.125Z,18.94
2024-03-22T03:49:11.125Z,19.13
2024-03-22T03:50:11.136Z,19.04
2024-03-22T03:51:11.125Z,18.84
2024-03-22T03:52:11.124Z,19.13
2024-03-22T03:53:11.128Z,18.94
2024-03-22T03:54:11.135Z,19.04
2024-03-22T03:55:11.132Z,19.04
2024-03-22T03:56:11.134Z,18.94
2024-03-22T03:57:11.134Z,19.04
2024-03-22T03:58:11.135Z,18.94
2024-03-22T03:59:11.138Z,19.04
2024-03-22T04:00:11.139Z,19.04
2024-03-22T04:01:11.142Z,19.04
2024-03-22T04:02:11.147Z,18.94
2024-03-22T04:03:11.160Z,18.94
2024-03-22T04:04:11.144Z,18.94
2024-03-22T04:05:11.158Z,18.94
2024-03-22T04:06:11.151Z,19.04
2024-03-22T04:07:11.150Z,19.04
2024-03-22T04:08:11.149Z,19.23
2024-03-22T04:09:11.152Z,19.23
2024-03-22T04:10:11.157Z,19.23
2024-03-22T04:11:11.157Z,19.32
2024-03-22T04:12:11.155Z,19.23
2024-03-22T04:13:11.158Z,19.42
2024-03-22T04:14:11.161Z,19.42
2024-03-22T04:15:11.161Z,19.32
2024-03-22T04:16:11.163Z,19.42
2024-03-22T04:17:11.182Z,19.32
2024-03-22T04:18:11.166Z,19.32
2024-03-22T04:19:11.178Z,19.42
2024-03-22T04:20:11.171Z,19.32
2024-03-22T04:21:11.169Z,19.52
2024-03-22T04:22:11.172Z,19.52
2024-03-22T04:23:11.172Z,19.52
2024-03-22T04:24:11.176Z,19.42
2024-03-22T04:25:11.173Z,19.42
2024-03-22T04:26:11.191Z,19.42
2024-03-22T04:27:11.175Z,19.52
2024-03-22T04:28:11.177Z,19.42
2024-03-22T04:29:11.180Z,19.52
2024-03-22T04:30:11.181Z,19.52
2024-03-22T04:31:11.183Z,19.52
2024-03-22T04:32:11.181Z,19.52
2024-03-22T04:33:11.186Z,19.52
2024-03-22T04:34:11.186Z,19.52
2024-03-22T04:35:11.200Z,19.52
2024-03-22T04:36:11.193Z,19.42
2024-03-22T04:37:11.192Z,19.42
2024-03-22T04:38:11.197Z,19.42
2024-03-22T04:39:11.193Z,19.52
2024-03-22T04:40:11.197Z,19.52
2024-03-22T04:41:11.202Z,19.42
2024-03-22T04:42:11.197Z,19.62
2024-03-22T04:43:11.209Z,19.42
2024-03-22T04:44:11.199Z,19.62
2024-03-22T04:45:11.201Z,19.62
2024-03-22T04:46:11.204Z,19.62
2024-03-22T04:47:11.212Z,19.42
2024-03-22T04:48:11.206Z,19.52
2024-03-22T04:49:11.207Z,19.62
2024-03-22T04:50:11.207Z,19.52
2024-03-22T04:51:11.225Z,19.52
2024-03-22T04:52:11.210Z,19.52
2024-03-22T04:53:11.218Z,19.52
2024-03-22T04:54:11.215Z,19.42
2024-03-22T04:55:11.215Z,19.52
2024-03-22T04:56:11.216Z,19.42
2024-03-22T04:57:11.219Z,19.52
2024-03-22T04:58:11.228Z,19.42
2024-03-22T04:59:11.223Z,19.42
2024-03-22T05:00:11.223Z,19.52
2024-03-22T05:01:11.227Z,19.52
2024-03-22T05:02:11.224Z,19.42
2024-03-22T05:03:11.229Z,19.52
2024-03-22T05:04:11.257Z,19.42
2024-03-22T05:05:11.237Z,19.42
2024-03-22T05:06:11.233Z,19.42
2024-03-22T05:07:11.297Z,19.42
2024-03-22T05:08:11.233Z,19.42
2024-03-22T05:09:11.254Z,19.42
2024-03-22T05:10:11.237Z,19.42
2024-03-22T05:11:11.240Z,19.42
2024-03-22T05:12:11.238Z,19.52
2024-03-22T05:13:13.601Z,19.52
2024-03-22T05:14:11.248Z,19.52
2024-03-22T05:15:11.250Z,19.62
2024-03-22T05:16:11.245Z,19.52
2024-03-22T05:17:11.250Z,19.42
2024-03-22T05:18:11.253Z,19.52
2024-03-22T05:19:11.250Z,19.42
2024-03-22T05:20:11.252Z,19.42
2024-03-22T05:21:11.252Z,19.52
2024-03-22T05:22:11.259Z,19.52
2024-03-22T05:23:11.266Z,19.52
2024-03-22T05:24:11.259Z,19.62
2024-03-22T05:25:11.268Z,19.52
2024-03-22T05:26:11.315Z,19.62
2024-03-22T05:27:11.262Z,19.62
2024-03-22T05:28:11.262Z,19.52
2024-03-22T05:29:11.264Z,19.42
2024-03-22T05:30:11.265Z,19.52
2024-03-22T05:31:11.267Z,19.42
2024-03-22T05:32:11.268Z,19.42
2024-03-22T05:33:11.270Z,19.42
2024-03-22T05:34:11.271Z,19.52
2024-03-22T05:35:11.281Z,19.52
2024-03-22T05:36:11.276Z,19.52
2024-03-22T05:37:11.287Z,19.52
2024-03-22T05:38:11.277Z,19.52
2024-03-22T05:39:11.292Z,19.52
2024-03-22T05:40:11.295Z,19.52
2024-03-22T05:41:11.283Z,19.52
2024-03-22T05:42:11.287Z,19.42
2024-03-22T05:43:11.288Z,19.52
2024-03-22T05:44:11.293Z,19.52
2024-03-22T05:45:11.290Z,19.52
2024-03-22T05:46:11.298Z,19.52
2024-03-22T05:47:11.691Z,19.52
2024-03-22T05:48:11.294Z,19.52
2024-03-22T05:49:11.301Z,19.32
2024-03-22T05:50:11.296Z,19.42
2024-03-22T05:51:11.303Z,19.42
2024-03-22T05:52:11.307Z,19.52
2024-03-22T05:53:11.311Z,19.52
2024-03-22T05:54:11.310Z,19.62
2024-03-22T05:55:11.316Z,19.62
2024-03-22T05:56:11.312Z,19.52
2024-03-22T05:57:11.309Z,19.42
2024-03-22T05:58:11.316Z,19.52
2024-03-22T05:59:11.306Z,19.52
2024-03-22T06:00:11.319Z,19.62
2024-03-22T06:01:11.310Z,19.52
2024-03-22T06:02:11.315Z,19.62
2024-03-22T06:03:11.331Z,19.52
2024-03-22T06:04:11.317Z,19.52
2024-03-22T06:05:11.317Z,19.71
2024-03-22T06:06:11.321Z,19.42
2024-03-22T06:07:11.322Z,19.71
2024-03-22T06:08:11.332Z,19.91
2024-03-22T06:09:11.332Z,19.91
2024-03-22T06:10:11.346Z,20.39
2024-03-22T06:11:14.483Z,19.81
2024-03-22T06:12:11.331Z,19.91
2024-03-22T06:13:11.332Z,19.91
2024-03-22T06:14:11.335Z,19.91
2024-03-22T06:15:11.333Z,19.81
2024-03-22T06:16:11.337Z,19.71
2024-03-22T06:17:11.338Z,19.91
2024-03-22T06:18:11.343Z,19.91
2024-03-22T06:19:11.341Z,19.81
2024-03-22T06:20:11.388Z,19.73
2024-03-22T06:21:11.371Z,20.10
2024-03-22T06:22:11.348Z,20.21
2024-03-22T06:23:11.355Z,20.21
2024-03-22T06:24:11.353Z,20.39
2024-03-22T06:25:11.350Z,19.82
2024-03-22T06:26:11.353Z,19.82
2024-03-22T06:27:11.389Z,19.82
2024-03-22T06:28:11.357Z,20.01
2024-03-22T06:29:11.359Z,19.91
2024-03-22T06:30:11.377Z,20.01
2024-03-22T06:31:11.376Z,20.01
2024-03-22T06:32:11.367Z,19.92
2024-03-22T06:33:11.384Z,20.01
2024-03-22T06:34:11.368Z,19.92
2024-03-22T06:35:11.381Z,20.11
2024-03-22T06:36:11.377Z,20.01
2024-03-22T06:37:11.374Z,19.92
2024-03-22T06:38:11.379Z,19.92
2024-03-22T06:39:11.416Z,20.01
2024-03-22T06:40:11.394Z,20.01
2024-03-22T06:41:11.388Z,19.82
2024-03-22T06:42:11.385Z,20.01
2024-03-22T06:43:11.418Z,19.82
2024-03-22T06:44:11.380Z,19.92
2024-03-22T06:45:11.382Z,19.92
2024-03-22T06:46:11.385Z,19.92
2024-03-22T06:47:11.392Z,19.82
2024-03-22T06:48:11.391Z,19.92
2024-03-22T06:49:11.388Z,19.82
2024-03-22T06:50:11.400Z,19.73
2024-03-22T06:51:11.401Z,19.92
2024-03-22T06:52:11.409Z,20.01
2024-03-22T06:53:11.404Z,20.01
2024-03-22T06:54:11.404Z,19.73
2024-03-22T06:55:11.406Z,19.73
2024-03-22T06:56:11.404Z,19.92
2024-03-22T06:57:11.406Z,19.73
2024-03-22T06:58:11.407Z,19.73
2024-03-22T06:59:11.419Z,19.73
2024-03-22T07:00:11.410Z,19.92
2024-03-22T07:01:12.606Z,19.73
2024-03-22T07:02:11.419Z,19.82
2024-03-22T07:03:11.415Z,19.92
2024-03-22T07:04:11.438Z,19.82
2024-03-22T07:05:11.417Z,19.73
2024-03-22T07:06:11.419Z,19.73
2024-03-22T07:07:11.422Z,19.82
2024-03-22T07:08:11.656Z,19.73
2024-03-22T07:09:11.422Z,19.92
2024-03-22T07:10:11.446Z,19.92
2024-03-22T07:11:11.426Z,20.01
2024-03-22T07:12:11.428Z,20.01
2024-03-22T07:13:11.429Z,20.01
2024-03-22T07:14:11.431Z,20.01
2024-03-22T07:15:11.449Z,19.92
2024-03-22T07:16:11.436Z,19.92
2024-03-22T07:17:11.442Z,19.93
2024-03-22T07:18:11.451Z,19.82
2024-03-22T07:19:11.613Z,19.63
2024-03-22T07:20:11.465Z,19.73
2024-03-22T07:21:11.448Z,19.82
2024-03-22T07:22:11.444Z,19.73
2024-03-22T07:23:11.449Z,19.53
2024-03-22T07:24:11.452Z,19.63
2024-03-22T07:25:11.445Z,19.73
2024-03-22T07:26:11.625Z,19.73
2024-03-22T07:27:11.453Z,19.73
2024-03-22T07:28:11.456Z,19.73
2024-03-22T07:29:11.456Z,19.73
2024-03-22T07:30:11.458Z,19.82
2024-03-22T07:31:11.476Z,19.82
2024-03-22T07:32:11.462Z,19.73
2024-03-22T07:33:11.463Z,19.53
2024-03-22T07:34:11.463Z,19.82
2024-03-22T07:35:11.472Z,19.53
2024-03-22T07:36:11.469Z,19.82
2024-03-22T07:37:17.376Z,19.73
2024-03-22T07:38:11.471Z,19.82
2024-03-22T07:39:11.472Z,19.73
2024-03-22T07:40:11.477Z,19.73
2024-03-22T07:41:11.476Z,19.73
2024-03-22T07:42:11.484Z,19.73
2024-03-22T07:43:11.480Z,19.73
2024-03-22T07:44:11.481Z,19.73
2024-03-22T07:45:11.486Z,19.73
2024-03-22T07:46:11.486Z,19.73
2024-03-22T07:47:11.504Z,19.73
2024-03-22T07:48:11.484Z,19.73
2024-03-22T07:49:11.513Z,19.82
2024-03-22T07:50:11.493Z,19.73
2024-03-22T07:51:11.560Z,19.73
2024-03-22T07:52:11.499Z,19.64
2024-03-22T07:53:11.496Z,19.63
2024-03-22T07:54:11.503Z,19.73
2024-03-22T07:55:11.502Z,19.73
2024-03-22T07:56:11.503Z,19.82
2024-03-22T07:57:11.504Z,19.73
2024-03-22T07:58:11.506Z,19.82
2024-03-22T07:59:11.545Z,19.82
2024-03-22T08:00:11.507Z,19.63
2024-03-22T08:01:11.511Z,19.43
2024-03-22T08:02:11.632Z,19.53
2024-03-22T08:03:11.531Z,19.73
2024-03-22T08:04:11.519Z,19.53
2024-03-22T08:05:11.515Z,19.63
2024-03-22T08:06:11.589Z,19.53
2024-03-22T08:07:11.545Z,19.53
2024-03-22T08:08:11.530Z,19.63
2024-03-22T08:09:11.523Z,19.53
2024-03-22T08:10:11.554Z,19.53
2024-03-22T08:11:11.533Z,19.63
2024-03-22T08:12:11.539Z,19.53
2024-03-22T08:13:11.530Z,19.53
2024-03-22T08:14:11.534Z,19.63
2024-03-22T08:15:11.557Z,19.53
2024-03-22T08:16:11.539Z,19.53
2024-03-22T08:17:11.539Z,19.44
2024-03-22T08:18:11.551Z,19.53
2024-03-22T08:19:11.553Z,19.53
2024-03-22T08:20:11.540Z,19.43
2024-03-22T08:21:11.581Z,19.53
2024-03-22T08:22:11.548Z,19.53
2024-03-22T08:23:11.551Z,19.35
2024-03-22T08:24:11.588Z,19.44
2024-03-22T08:25:11.552Z,19.54
2024-03-22T08:26:11.567Z,19.43
2024-03-22T08:27:11.601Z,19.53
2024-03-22T08:28:17.319Z,19.44
2024-03-22T08:29:11.573Z,19.43
2024-03-22T08:30:11.578Z,19.43
2024-03-22T08:31:11.562Z,19.64
2024-03-22T08:32:11.567Z,19.63
2024-03-22T08:33:11.598Z,19.63
2024-03-22T08:34:11.576Z,19.64
2024-03-22T08:35:11.656Z,19.53
2024-03-22T08:36:11.604Z,19.53
2024-03-22T08:37:11.578Z,19.73
2024-03-22T08:38:11.580Z,19.73
2024-03-22T08:39:11.579Z,19.82
2024-03-22T08:40:11.582Z,19.53
2024-03-22T08:41:11.604Z,19.82
2024-03-22T08:43:11.582Z,19.82
2024-03-22T08:44:11.581Z,19.63
2024-03-22T08:45:11.588Z,19.73
2024-03-22T08:46:11.591Z,19.63
2024-03-22T08:47:11.589Z,19.82
2024-03-22T08:48:11.686Z,19.63
2024-03-22T08:49:11.592Z,19.63
2024-03-22T08:50:11.596Z,19.53
2024-03-22T08:51:11.612Z,19.63
2024-03-22T08:52:11.599Z,19.53
2024-03-22T08:53:11.599Z,19.53
2024-03-22T08:54:11.604Z,19.82
2024-03-22T08:55:11.657Z,19.73
2024-03-22T08:56:11.603Z,19.73
2024-03-22T08:57:11.647Z,19.63
2024-03-22T08:58:11.614Z,19.63
2024-03-22T08:59:11.606Z,19.63
2024-03-22T09:00:11.616Z,19.63
2024-03-22T09:01:11.640Z,19.63
2024-03-22T09:02:11.650Z,19.73
2024-03-22T09:03:11.616Z,19.73
2024-03-22T09:04:11.659Z,19.82
2024-03-22T09:05:11.627Z,19.63
2024-03-22T09:06:11.734Z,19.63
2024-03-22T09:07:11.653Z,19.63
2024-03-22T09:08:11.622Z,19.82
2024-03-22T09:09:11.652Z,19.82
2024-03-22T09:10:11.624Z,19.73
2024-03-22T09:11:11.633Z,19.73
2024-03-22T09:12:11.633Z,19.82
2024-03-22T09:13:11.629Z,19.92
2024-03-22T09:14:11.635Z,19.82
2024-03-22T09:15:11.637Z,19.92
2024-03-22T09:16:11.641Z,20.01
2024-03-22T09:17:11.638Z,20.01
2024-03-22T09:18:11.650Z,20.01
2024-03-22T09:19:12.035Z,19.92
2024-03-22T09:20:11.689Z,20.01
2024-03-22T09:21:11.645Z,19.82
2024-03-22T09:22:11.646Z,19.81
2024-03-22T09:23:11.703Z,20.39
2024-03-22T09:24:11.650Z,20.40
2024-03-22T09:25:11.650Z,20.30
2024-03-22T09:26:11.652Z,20.30
2024-03-22T09:27:11.655Z,20.20
2024-03-22T09:28:11.654Z,20.20
2024-03-22T09:29:11.654Z,20.10
2024-03-22T09:30:11.660Z,20.10
2024-03-22T09:31:11.663Z,20.10
2024-03-22T09:32:11.709Z,20.30
2024-03-22T09:33:11.659Z,20.49
2024-03-22T09:34:11.662Z,20.49
2024-03-22T09:35:11.683Z,20.49
2024-03-22T09:36:11.665Z,20.59
2024-03-22T09:37:11.667Z,20.59
2024-03-22T09:38:11.676Z,20.98
2024-03-22T09:39:11.700Z,20.68
2024-03-22T09:40:11.704Z,20.68
2024-03-22T09:41:11.671Z,20.78
2024-03-22T09:42:11.704Z,20.68
2024-03-22T09:43:11.674Z,20.59
2024-03-22T09:44:11.713Z,20.59
2024-03-22T09:45:11.677Z,20.68
2024-03-22T09:46:11.686Z,20.68
2024-03-22T09:47:11.678Z,20.78
2024-03-22T09:48:11.693Z,20.59
2024-03-22T09:49:11.680Z,20.98
2024-03-22T09:50:11.738Z,20.98
2024-03-22T09:51:11.684Z,20.88
2024-03-22T09:52:11.696Z,20.98
2024-03-22T09:53:11.716Z,20.98
2024-03-22T09:54:11.709Z,20.98
2024-03-22T09:55:11.711Z,20.98
2024-03-22T09:56:11.720Z,20.98
2024-03-22T09:57:11.693Z,20.98
2024-03-22T09:58:11.705Z,20.98
2024-03-22T09:59:11.720Z,20.98
2024-03-22T10:00:11.712Z,20.98
2024-03-22T10:01:11.776Z,20.98
2024-03-22T10:02:11.707Z,20.98
2024-03-22T10:03:11.704Z,20.98
2024-03-22T10:04:11.724Z,20.59
2024-03-22T10:05:11.711Z,20.88
2024-03-22T10:06:11.709Z,20.68
2024-03-22T10:07:11.716Z,20.68
2024-03-22T10:08:11.711Z,20.78
2024-03-22T10:09:11.714Z,20.78
2024-03-22T10:10:14.587Z,20.88
2024-03-22T10:11:11.728Z,20.98
2024-03-22T10:12:11.725Z,20.59
2024-03-22T10:13:11.720Z,20.68
2024-03-22T10:14:15.604Z,20.59
2024-03-22T10:15:14.219Z,20.88
2024-03-22T10:16:11.721Z,20.88
2024-03-22T10:17:11.729Z,20.88
2024-03-22T10:18:11.726Z,20.49
2024-03-22T10:19:11.729Z,20.78
2024-03-22T10:20:11.729Z,20.49
2024-03-22T10:21:11.732Z,20.59
2024-03-22T10:22:11.736Z,20.39
2024-03-22T10:23:11.735Z,20.39
2024-03-22T10:24:11.738Z,20.39
2024-03-22T10:25:11.739Z,20.49
2024-03-22T10:26:11.738Z,20.49
2024-03-22T10:27:11.781Z,20.49
2024-03-22T10:28:14.232Z,20.49
2024-03-22T10:29:11.787Z,20.49
2024-03-22T10:30:11.820Z,20.49
2024-03-22T10:31:11.806Z,20.59
2024-03-22T10:32:11.754Z,20.49
2024-03-22T10:33:11.783Z,20.59
2024-03-22T10:34:11.761Z,20.59
2024-03-22T10:35:11.758Z,20.49
2024-03-22T10:36:11.804Z,20.49
2024-03-22T10:37:11.768Z,20.39
2024-03-22T10:38:11.770Z,20.49
2024-03-22T10:39:11.822Z,20.49
2024-03-22T10:40:11.774Z,20.49
2024-03-22T10:41:11.775Z,20.39
2024-03-22T10:42:11.767Z,20.68
2024-03-22T10:43:11.819Z,20.49
2024-03-22T10:44:11.783Z,20.21
2024-03-22T10:45:11.808Z,20.11
2024-03-22T10:46:11.783Z,20.31
2024-03-22T10:47:11.773Z,20.01
2024-03-22T10:48:11.770Z,19.92
2024-03-22T10:49:11.859Z,19.73
2024-03-22T10:50:11.895Z,19.42
2024-03-22T10:51:11.783Z,19.53
2024-03-22T10:52:11.775Z,19.34
2024-03-22T10:53:11.832Z,19.04
2024-03-22T10:54:11.898Z,19.53
2024-03-22T10:55:11.798Z,18.85
2024-03-22T10:56:11.818Z,18.95
2024-03-22T10:57:11.917Z,18.95
2024-03-22T10:58:11.808Z,18.85
2024-03-22T10:59:11.819Z,18.85
2024-03-22T11:00:11.791Z,18.85
2024-03-22T11:01:11.811Z,18.66
2024-03-22T11:02:11.804Z,18.56
2024-03-22T11:03:11.799Z,18.66
2024-03-22T11:04:11.799Z,18.17
2024-03-22T11:05:11.811Z,18.75
2024-03-22T11:06:11.813Z,18.07
2024-03-22T11:07:11.807Z,17.88
2024-03-22T11:08:11.804Z,17.68
2024-03-22T11:09:11.812Z,18.07
2024-03-22T11:10:11.809Z,17.68
2024-03-22T11:11:11.811Z,17.68
2024-03-22T11:12:11.809Z,17.78
2024-03-22T11:13:11.814Z,17.30
2024-03-22T11:14:11.814Z,17.49
2024-03-22T11:15:11.839Z,17.40
2024-03-22T11:16:11.816Z,17.49
2024-03-22T11:17:11.839Z,17.49
2024-03-22T11:18:11.822Z,17.40
2024-03-22T11:19:11.823Z,17.49
2024-03-22T11:20:11.821Z,17.40
2024-03-22T11:21:11.829Z,17.30
2024-03-22T11:22:11.831Z,17.40
2024-03-22T11:23:11.833Z,17.30
2024-03-22T11:24:11.831Z,17.30
2024-03-22T11:25:11.836Z,17.30
2024-03-22T11:26:11.836Z,17.10
2024-03-22T11:27:11.839Z,17.10
2024-03-22T11:28:13.754Z,17.20
2024-03-22T11:29:11.843Z,17.21
2024-03-22T11:30:11.842Z,17.21
2024-03-22T11:31:11.862Z,17.20
2024-03-22T11:32:11.847Z,17.30
2024-03-22T11:33:11.864Z,17.20
2024-03-22T11:34:11.850Z,17.30
2024-03-22T11:35:11.856Z,17.21
2024-03-22T11:36:11.852Z,17.30
2024-03-22T11:37:11.860Z,17.30
2024-03-22T11:38:11.854Z,17.21
2024-03-22T11:39:11.859Z,17.30
2024-03-22T11:40:11.867Z,17.21
2024-03-22T11:41:11.866Z,17.21
2024-03-22T11:42:11.873Z,17.21
2024-03-22T11:43:11.871Z,17.01
2024-03-22T11:44:11.862Z,16.91
2024-03-22T11:45:11.867Z,16.82
2024-03-22T11:46:11.874Z,16.82
2024-03-22T11:47:11.890Z,16.62
2024-03-22T11:48:11.878Z,16.82
2024-03-22T11:49:11.874Z,16.91
2024-03-22T11:50:11.881Z,16.82
2024-03-22T11:51:11.879Z,16.91
2024-03-22T11:52:11.897Z,16.91
2024-03-22T11:53:11.883Z,17.21
2024-03-22T11:54:11.887Z,16.72
2024-03-22T11:55:11.886Z,16.91
2024-03-22T11:56:11.894Z,16.72
2024-03-22T11:57:11.906Z,16.82
2024-03-22T11:58:11.896Z,16.62
2024-03-22T11:59:11.904Z,16.53
2024-03-22T12:00:19.309Z,16.62
2024-03-22T12:01:28.108Z,16.82
2024-03-22T12:02:11.911Z,16.72
2024-03-22T12:03:11.918Z,16.72
2024-03-22T12:04:11.902Z,16.72
2024-03-22T12:05:11.922Z,16.72
2024-03-22T12:06:11.907Z,16.72
2024-03-22T12:07:11.914Z,16.82
2024-03-22T12:08:11.919Z,16.82
2024-03-22T12:09:11.917Z,16.72
2024-03-22T12:10:11.923Z,16.72
2024-03-22T12:11:11.943Z,16.91
2024-03-22T12:12:11.923Z,16.53
2024-03-22T12:13:11.929Z,16.91
2024-03-22T12:14:11.923Z,16.91
2024-03-22T12:15:11.927Z,16.71
2024-03-22T12:16:11.924Z,16.82
2024-03-22T12:17:11.931Z,16.72
2024-03-22T12:18:11.942Z,16.81
2024-03-22T12:19:11.951Z,16.71
2024-03-22T12:20:11.930Z,16.72
2024-03-22T12:21:11.939Z,16.81
2024-03-22T12:22:11.946Z,16.91
2024-03-22T12:23:11.940Z,17.00
2024-03-22T12:24:11.940Z,17.20
2024-03-22T12:25:11.943Z,17.20
2024-03-22T12:26:11.944Z,17.10
2024-03-22T12:27:19.446Z,17.20
2024-03-22T12:28:11.953Z,17.20
2024-03-22T12:29:11.967Z,17.20
2024-03-22T12:30:11.948Z,17.30
2024-03-22T12:31:11.959Z,17.20
2024-03-22T12:32:11.963Z,17.30
2024-03-22T12:33:11.967Z,17.20
2024-03-22T12:34:11.962Z,17.20
2024-03-22T12:35:11.982Z,17.20
2024-03-22T12:36:11.958Z,17.20
2024-03-22T12:37:11.963Z,17.20
2024-03-22T12:38:11.966Z,17.20
2024-03-22T12:39:11.971Z,17.10
2024-03-22T12:40:11.970Z,16.91
2024-03-22T12:41:11.971Z,16.71
2024-03-22T12:42:11.970Z,16.61
2024-03-22T12:43:11.974Z,16.81
2024-03-22T12:44:11.970Z,16.81
2024-03-22T12:45:11.974Z,16.91
2024-03-22T12:46:11.981Z,16.91
2024-03-22T12:47:11.980Z,16.91
2024-03-22T12:48:11.978Z,16.91
2024-03-22T12:49:11.996Z,16.71
2024-03-22T12:50:11.982Z,16.71
2024-03-22T12:51:12.002Z,16.71
2024-03-22T12:52:11.992Z,16.91
2024-03-22T12:53:11.986Z,16.91